Vancouver, WA

3:21 AM PDT on October 25, 2014 (GMT -0700)
Fruit Valley | Change Station
CLOSE
Current Station
Personal Weather Station
Location: Vancouver, WA
Elevation: 37 ft
Nearby Weather Stations

Elev 37 ft 45.65 °N, 122.69 °W | Updated 3 seconds ago

Clear
Clear
48.6 °F
Feels Like 49 °F
N
0.0
Wind Variable Wind from West
Gusts 2.0 mph

Today
High -- | Low -- °F
--% Chance of Precip.
Yesterday
High -- | Low -- °F
Precip. -- in
7:40 AM 6:07 PM
New Moon, 2% visible
Pressure 29.56 in
Visibility 1.8 miles
Clouds Clear
Windchill 49 °F
Dew Point 49 °F
Humidity 100%
Rainfall 0.00 in
Snow Depth Not available.
UV 0 out of 12
Pollen .40 out of 12
Air Quality Not available.
Flu Activity Sporadic
SPECI KVUO 251014Z AUTO 28003KT 1 3/4SM BR CLR 07/07 A2956 RMK AO2 VIS 1/2V5 T00720072

More Conditions Fewer Conditions

Pressure 29.56 in
Visibility 1.8 miles
Clouds Clear
Windchill 49 °F
Dew Point 49 °F
Humidity 100%
Rainfall 0.00 in
Snow Depth Not available.
UV 0 out of 12
Pollen .40 out of 12
Air Quality Not available.
Flu Activity Sporadic
SPECI KVUO 251014Z AUTO 28003KT 1 3/4SM BR CLR 07/07 A2956 RMK AO2 VIS 1/2V5 T00720072

More Conditions Fewer Conditions

10-Day Weather Forecast

Almanac

Astronomy

Oct. 25, 2014 Rise Set
Actual Time 7:40 AM PDT 6:07 PM PDT
Civil Twilight 7:10 AM PDT 6:38 PM PDT
Nautical Twilight 6:35 AM PDT 7:13 PM PDT
Astronomical Twilight 6:01 AM PDT 7:47 PM PDT
Moon 9:29 AM PDT 7:30 PM PDT
Length of Visible Light 11h 28m
Length of Day
10h 27m
Tomorrow will be 2m 58s shorter.
New Moon, 2% of the Moon is Illuminated
Today
New Moon
Oct 30
First Quarter
Nov 6
Full
Nov 14
Last Quarter
Nov 22
New

Today's Extremes

State Highs State Lows

Community

WunderPhotos

Upload Photos

1,764,806 photos uploaded!

Nearby

Snow Depth

Station Depth Elevation
June Lake 0 in 3340 ft
Sheep Canyon 0 in 4030 ft
Swift Creek 0 in 3770 ft
Spencer Meadow 0 in 3400 ft
Surprise Lakes 1 in 4250 ft

Earthquake Activity

City Distance Mag. Time & Date
No recent earthquake activity has been reported nearby.
Minimum magnitude displayed is 2.5.

Coastal Water Temperatures

Place Temperature
No Stations Reporting

Nearby Weather Stations